createdAt,value
2022-09-17T00:44:22.033Z,24.80
2022-09-17T00:47:00.753Z,24.80
2022-09-17T00:49:37.089Z,24.80
2022-09-17T00:52:16.694Z,24.60
2022-09-17T00:54:58.164Z,24.70
2022-09-17T00:57:35.178Z,24.80
2022-09-17T01:00:12.348Z,25.10
2022-09-17T01:02:51.379Z,25.20
2022-09-17T01:05:32.950Z,25.40
2022-09-17T01:08:15.533Z,25.40
2022-09-17T01:11:20.265Z,25.40
2022-09-17T01:14:10.643Z,25.10
2022-09-17T01:16:53.152Z,24.90
2022-09-17T01:19:54.458Z,24.50
2022-09-17T01:22:38.386Z,24.00
2022-09-17T01:25:26.813Z,23.80
2022-09-17T01:28:43.830Z,23.70
2022-09-17T01:31:36.795Z,23.60
2022-09-17T01:34:24.887Z,23.50
2022-09-17T01:37:09.099Z,23.30
2022-09-17T01:39:53.175Z,23.10
2022-09-17T01:42:34.846Z,22.90
2022-09-17T01:45:14.541Z,22.70
2022-09-17T01:47:56.645Z,22.60
2022-09-17T01:50:34.505Z,22.60
2022-09-17T01:53:12.071Z,22.70
2022-09-17T01:55:51.742Z,22.80
2022-09-17T01:58:31.524Z,22.90
2022-09-17T02:01:12.874Z,22.90
2022-09-17T02:03:54.754Z,22.90
2022-09-17T02:06:40.013Z,23.10
2022-09-17T02:09:22.318Z,23.20
2022-09-17T02:12:09.847Z,23.40
2022-09-17T02:17:29.537Z,23.80
2022-09-17T02:20:08.149Z,23.90
2022-09-17T02:22:47.405Z,23.80
2022-09-17T02:25:29.116Z,23.60
2022-09-17T02:28:08.852Z,23.30
2022-09-17T02:30:44.329Z,23.00
2022-09-17T02:33:21.229Z,22.90
2022-09-17T02:36:00.155Z,23.20
2022-09-17T02:38:36.953Z,23.30
2022-09-17T02:41:19.664Z,23.50
2022-09-17T02:44:03.599Z,23.60
2022-09-17T02:47:06.327Z,23.70
2022-09-17T02:49:58.829Z,23.90
2022-09-17T02:52:52.849Z,24.10
2022-09-17T02:55:36.301Z,24.20
2022-09-17T02:58:23.918Z,24.30
2022-09-17T03:01:02.497Z,24.30
2022-09-17T03:03:42.359Z,24.30
2022-09-17T03:06:18.665Z,24.40
2022-09-17T03:08:56.586Z,24.50
2022-09-17T03:11:37.521Z,24.70
2022-09-17T03:14:22.689Z,24.60
2022-09-17T03:16:59.181Z,24.50
2022-09-17T03:19:36.369Z,24.60
2022-09-17T03:22:12.848Z,24.40
2022-09-17T03:24:50.409Z,24.00
2022-09-17T03:27:29.147Z,23.80
2022-09-17T03:30:27.225Z,23.70
2022-09-17T03:33:06.545Z,23.60
2022-09-17T03:35:49.838Z,23.60
2022-09-17T03:38:32.378Z,23.70
2022-09-17T03:41:17.899Z,23.70
2022-09-17T03:43:55.909Z,23.80
2022-09-17T03:46:36.228Z,23.90
2022-09-17T03:49:11.819Z,24.00
2022-09-17T03:51:50.601Z,24.10
2022-09-17T03:54:27.560Z,24.20
2022-09-17T03:57:08.315Z,24.40
2022-09-17T03:59:44.422Z,24.50
2022-09-17T04:02:38.805Z,24.30
2022-09-17T04:05:17.821Z,24.30
2022-09-17T04:07:57.489Z,24.30
2022-09-17T04:10:33.278Z,24.30
2022-09-17T04:13:14.812Z,24.40
2022-09-17T04:15:51.680Z,24.50
2022-09-17T04:18:33.610Z,24.50
2022-09-17T04:21:18.852Z,24.50
2022-09-17T04:23:55.926Z,24.50
2022-09-17T04:26:38.245Z,24.50
2022-09-17T04:29:18.228Z,24.50
2022-09-17T04:35:10.253Z,24.30
2022-09-17T04:38:01.106Z,24.00
2022-09-17T04:41:01.260Z,23.90
2022-09-17T04:43:55.762Z,23.80
2022-09-17T04:46:43.761Z,23.80
2022-09-17T04:49:29.748Z,23.70
2022-09-17T04:52:09.470Z,23.40
2022-09-17T04:54:50.273Z,23.40
2022-09-17T04:57:29.749Z,23.30
2022-09-17T05:00:09.580Z,23.20
2022-09-17T05:02:55.021Z,23.20
2022-09-17T05:05:43.443Z,23.20
2022-09-17T05:08:27.765Z,23.20
2022-09-17T05:11:17.514Z,23.30
2022-09-17T05:13:59.432Z,23.20
2022-09-17T05:16:35.390Z,23.20
2022-09-17T05:19:13.424Z,23.20
2022-09-17T05:21:49.186Z,23.20
2022-09-17T05:24:31.407Z,23.10
2022-09-17T05:27:11.250Z,23.00
2022-09-17T05:29:52.980Z,23.00
2022-09-17T05:32:56.469Z,22.90
2022-09-17T05:35:50.102Z,22.80
2022-09-17T05:38:26.222Z,20.40
2022-09-17T05:41:15.309Z,22.80
2022-09-17T05:43:57.601Z,22.80
2022-09-17T05:46:33.877Z,22.70
2022-09-17T05:49:12.579Z,22.70
2022-09-17T05:51:50.212Z,22.70
2022-09-17T05:54:25.847Z,22.60
2022-09-17T05:57:04.427Z,22.50
2022-09-17T05:59:42.065Z,22.50
2022-09-17T06:02:22.323Z,22.50
2022-09-17T06:05:02.967Z,22.50
2022-09-17T06:07:57.724Z,22.40
2022-09-17T06:10:33.552Z,22.40
2022-09-17T06:13:15.744Z,22.30
2022-09-17T06:15:59.767Z,22.30
2022-09-17T06:18:45.598Z,22.20
2022-09-17T06:21:21.417Z,22.20
2022-09-17T06:24:01.081Z,22.10
2022-09-17T06:26:36.351Z,22.10
2022-09-17T06:29:11.531Z,22.10
2022-09-17T06:32:09.777Z,22.10
2022-09-17T06:37:46.925Z,22.00
2022-09-17T06:40:31.123Z,22.00
2022-09-17T06:45:50.668Z,21.90
2022-09-17T06:51:11.289Z,21.90
2022-09-17T06:53:52.396Z,21.90
2022-09-17T06:56:32.202Z,21.80
2022-09-17T06:59:08.240Z,21.80
2022-09-17T07:01:44.588Z,21.80
2022-09-17T07:20:11.553Z,21.70
2022-09-17T07:22:48.715Z,21.90
2022-09-17T07:25:28.293Z,21.50
2022-09-17T07:28:07.174Z,21.50
2022-09-17T07:30:44.019Z,21.20
2022-09-17T07:33:27.048Z,21.20
2022-09-17T07:36:07.046Z,21.10
2022-09-17T07:38:45.847Z,21.00
2022-09-17T07:41:24.243Z,21.00
2022-09-17T07:44:06.463Z,21.00
2022-09-17T07:46:42.475Z,20.90
2022-09-17T07:49:18.473Z,20.80
2022-09-17T07:51:53.906Z,20.60
2022-09-17T07:54:35.830Z,20.70
2022-09-17T07:57:18.528Z,20.60
2022-09-17T07:59:58.059Z,20.60
2022-09-17T08:18:35.793Z,20.40
2022-09-17T08:21:19.320Z,20.20
2022-09-17T08:23:59.282Z,20.10
2022-09-17T08:26:37.859Z,20.10
2022-09-17T08:29:13.674Z,20.00
2022-09-17T09:22:40.859Z,19.40
2022-09-17T09:25:24.998Z,19.30
2022-09-17T09:28:12.163Z,19.30
2022-09-17T09:31:00.268Z,19.20
2022-09-17T09:33:38.274Z,19.10
2022-09-17T09:36:18.676Z,19.20
2022-09-17T09:39:00.654Z,19.30
2022-09-17T09:41:42.013Z,19.30
2022-09-17T09:44:18.899Z,19.20
2022-09-17T09:47:17.436Z,19.00
2022-09-17T09:50:13.018Z,19.00
2022-09-17T09:53:05.498Z,19.00
2022-09-17T09:56:05.955Z,19.00
2022-09-17T09:58:43.320Z,19.00
2022-09-17T10:01:26.327Z,19.00
2022-09-17T10:04:02.639Z,19.00
2022-09-17T10:06:47.816Z,19.00
2022-09-17T10:09:29.567Z,18.90
2022-09-17T10:12:08.541Z,18.90
2022-09-17T10:14:48.342Z,18.90
2022-09-17T10:17:32.797Z,18.90
2022-09-17T10:20:23.220Z,18.90
2022-09-17T10:23:01.800Z,18.90
2022-09-17T10:25:46.424Z,18.90
2022-09-17T10:28:43.878Z,18.80
2022-09-17T10:31:19.065Z,18.80
2022-09-17T10:34:00.410Z,18.80
2022-09-17T10:36:52.716Z,18.80
2022-09-17T10:39:38.297Z,18.80
2022-09-17T10:42:34.075Z,18.80
2022-09-17T10:45:09.847Z,18.80
2022-09-17T10:47:47.580Z,18.80
2022-09-17T10:50:31.376Z,18.70
2022-09-17T10:53:10.437Z,18.60
2022-09-17T10:55:49.946Z,18.60
2022-09-17T10:58:42.369Z,18.50
2022-09-17T11:01:31.021Z,18.40
2022-09-17T11:04:27.237Z,18.40
2022-09-17T11:07:33.275Z,18.30
2022-09-17T11:10:16.753Z,18.40
2022-09-17T11:13:14.281Z,18.30
2022-09-17T11:16:05.775Z,18.30
2022-09-17T11:18:46.991Z,18.30
2022-09-17T11:21:50.783Z,18.30
2022-09-17T11:25:04.331Z,18.20
2022-09-17T11:27:57.844Z,18.30
2022-09-17T11:30:38.305Z,18.30
2022-09-17T11:33:28.617Z,18.30
2022-09-17T11:36:08.341Z,18.30
2022-09-17T11:38:49.390Z,18.20
2022-09-17T11:41:27.442Z,18.20
2022-09-17T11:44:27.442Z,18.10
2022-09-17T11:47:10.093Z,18.10
2022-09-17T11:49:51.077Z,18.10
2022-09-17T11:52:28.661Z,18.00
2022-09-17T11:55:07.466Z,18.00
2022-09-17T11:57:46.314Z,18.00
2022-09-17T12:00:25.840Z,18.10
2022-09-17T12:03:07.264Z,18.10
2022-09-17T12:05:50.552Z,18.00
2022-09-17T12:08:30.241Z,18.00
2022-09-17T12:11:12.405Z,18.00
2022-09-17T12:13:55.565Z,18.00
2022-09-17T12:16:39.167Z,18.00
2022-09-17T12:19:29.229Z,17.90
2022-09-17T12:22:17.079Z,17.90
2022-09-17T12:24:57.146Z,17.90
2022-09-17T12:27:47.260Z,18.00
2022-09-17T12:30:27.569Z,17.90
2022-09-17T12:33:28.278Z,17.90
2022-09-17T12:36:30.633Z,17.80
2022-09-17T12:39:27.589Z,17.70
2022-09-17T12:42:17.380Z,17.70
2022-09-17T12:45:24.039Z,17.70
2022-09-17T12:48:31.423Z,17.80
2022-09-17T12:51:21.414Z,17.90
2022-09-17T12:56:51.756Z,17.70
2022-09-17T13:38:47.223Z,17.80
2022-09-17T13:41:27.704Z,17.90
2022-09-17T13:44:09.756Z,17.90
2022-09-17T13:46:46.147Z,17.90
2022-09-17T13:49:23.267Z,17.80
2022-09-17T13:52:02.561Z,17.80
2022-09-17T13:54:55.870Z,17.80
2022-09-17T13:57:41.980Z,17.80
2022-09-17T14:00:54.571Z,17.80
2022-09-17T14:03:58.546Z,17.70
2022-09-17T14:06:57.679Z,17.70
2022-09-17T14:10:03.425Z,17.80
2022-09-17T14:13:13.805Z,17.70
2022-09-17T14:16:27.723Z,17.70
2022-09-17T14:19:07.511Z,17.60
2022-09-17T14:21:42.776Z,17.60
2022-09-17T14:24:28.366Z,17.60
2022-09-17T14:27:36.486Z,17.70
2022-09-17T14:30:19.799Z,17.70
2022-09-17T14:33:09.919Z,17.70
2022-09-17T14:35:48.332Z,17.60
2022-09-17T14:38:29.402Z,17.60
2022-09-17T14:41:08.153Z,17.60
2022-09-17T14:43:52.572Z,17.70
2022-09-17T14:46:29.041Z,17.70
2022-09-17T14:49:26.681Z,17.70
2022-09-17T14:52:30.580Z,17.60
2022-09-17T14:55:20.562Z,17.70
2022-09-17T14:57:57.804Z,17.60
2022-09-17T15:00:39.496Z,17.50
2022-09-17T15:03:27.443Z,17.50
2022-09-17T15:06:02.746Z,17.50
2022-09-17T15:11:19.202Z,17.60
2022-09-17T15:13:56.804Z,17.70
2022-09-17T15:16:36.508Z,17.50
2022-09-17T15:21:52.186Z,17.50
2022-09-17T15:24:36.145Z,17.40
2022-09-17T15:27:20.161Z,17.50
2022-09-17T15:29:59.125Z,17.50
2022-09-17T15:32:37.671Z,17.50
2022-09-17T15:35:37.124Z,17.50
2022-09-17T15:38:26.597Z,17.50
2022-09-17T15:41:23.362Z,17.60
2022-09-17T15:44:13.231Z,17.50
2022-09-17T15:46:54.956Z,17.50
2022-09-17T15:49:37.993Z,17.60
2022-09-17T15:52:38.314Z,17.70
2022-09-17T15:55:42.850Z,17.80
2022-09-17T15:58:30.505Z,17.70
2022-09-17T16:01:45.943Z,17.70
2022-09-17T18:09:33.324Z,16.90
2022-09-17T18:43:23.980Z,16.60
2022-09-17T18:46:02.754Z,16.50
2022-09-17T18:48:38.341Z,16.50
2022-09-17T18:51:15.340Z,16.30
2022-09-17T18:53:51.845Z,16.20
2022-09-17T18:56:30.008Z,16.20
2022-09-17T18:59:08.437Z,16.10
2022-09-17T19:01:43.915Z,16.10
2022-09-17T19:04:19.707Z,16.10
2022-09-17T19:06:54.901Z,16.00
2022-09-17T19:09:36.036Z,16.00
2022-09-17T19:12:11.618Z,16.00
2022-09-17T19:14:49.242Z,16.00
2022-09-17T19:17:24.602Z,16.10
2022-09-17T19:19:59.764Z,16.10
2022-09-17T19:22:35.523Z,16.00
2022-09-17T19:25:11.421Z,16.00
2022-09-17T19:27:46.845Z,16.00
2022-09-17T19:30:24.509Z,16.00
2022-09-17T19:33:00.016Z,15.90
2022-09-17T19:35:35.330Z,15.90
2022-09-17T19:38:13.280Z,15.80
2022-09-17T19:41:04.971Z,15.80
2022-09-17T19:43:41.019Z,15.80
2022-09-17T19:46:21.151Z,15.80
2022-09-17T19:48:57.543Z,15.80
2022-09-17T19:51:33.781Z,15.80
2022-09-17T19:54:11.211Z,15.80
2022-09-17T19:57:05.125Z,15.80
2022-09-17T19:59:41.993Z,15.70
2022-09-17T20:02:20.077Z,15.60
2022-09-17T20:04:55.551Z,15.70
2022-09-17T20:07:32.084Z,15.60
2022-09-17T20:10:10.153Z,15.60
2022-09-17T20:12:45.542Z,15.70
2022-09-17T20:15:21.409Z,15.80
2022-09-17T20:17:59.449Z,15.90
2022-09-17T20:20:34.895Z,16.00
2022-09-17T20:23:11.347Z,16.00
2022-09-17T20:25:47.700Z,16.10
2022-09-17T20:28:23.437Z,16.10
2022-09-17T20:31:06.448Z,16.20
2022-09-17T20:33:44.311Z,16.40
2022-09-17T20:36:21.493Z,16.50
2022-09-17T20:39:21.099Z,16.50
2022-09-17T20:41:54.567Z,16.60
2022-09-17T20:44:30.266Z,16.60
2022-09-17T20:47:06.753Z,16.80
2022-09-17T20:49:46.972Z,16.90
2022-09-17T20:52:22.594Z,17.00
2022-09-17T20:54:57.880Z,17.10
2022-09-17T20:57:55.536Z,17.20
2022-09-17T21:00:31.057Z,17.40
2022-09-17T21:03:07.068Z,17.50
2022-09-17T21:05:45.775Z,17.60
2022-09-17T21:08:20.945Z,17.60
2022-09-17T21:10:56.172Z,17.70
2022-09-17T21:13:31.405Z,17.80
2022-09-17T21:16:06.976Z,18.00
2022-09-17T21:18:42.720Z,18.10
2022-09-17T21:21:27.754Z,18.30
2022-09-17T21:24:18.233Z,18.40
2022-09-17T21:26:56.913Z,18.60
2022-09-17T21:29:46.071Z,18.70
2022-09-17T21:32:22.221Z,18.80
2022-09-17T21:34:58.007Z,19.00
2022-09-17T21:37:42.462Z,19.00
2022-09-17T22:47:07.742Z,20.40
2022-09-17T22:49:55.756Z,20.50
2022-09-17T22:52:41.429Z,20.30
2022-09-17T22:55:18.114Z,20.40
2022-09-17T22:57:58.896Z,20.50
2022-09-17T23:00:41.926Z,20.60
2022-09-17T23:08:37.946Z,20.60
2022-09-17T23:13:59.638Z,20.40
2022-09-17T23:19:13.731Z,20.50
2022-09-17T23:21:59.243Z,20.60
2022-09-17T23:24:38.704Z,20.70
2022-09-17T23:27:19.387Z,20.70
2022-09-17T23:30:11.475Z,20.80
2022-09-17T23:32:58.556Z,20.80
2022-09-17T23:35:33.925Z,20.80
2022-09-17T23:38:09.286Z,20.90
2022-09-17T23:40:45.344Z,21.10
2022-09-17T23:43:21.177Z,21.20
2022-09-17T23:46:04.247Z,21.20
2022-09-17T23:53:51.901Z,21.60
2022-09-17T23:56:28.885Z,21.70
2022-09-17T23:59:06.280Z,21.70
